Smithfield, Rhode Island
Current Conditions -  °F | °C
As of 5:15 PM on Tuesday 25 Nov 2014 (Local Time) from KSFZ Reporting Station
Clear Clear  
Wind Chill: 52°   Ceiling: Unl
Heat Index: 52°   Visibility: 10mi
Dew Point: 21°   Wind: 6mph
Humidity: 30%   Direction: 260°W
Pressure: 29.97"   Gusts: NA
Location:  41.92°N, 71.55°W
Report Text: KSFZ 252215Z 26005KT 10SM CLR 11/M06 A2997 RMK AO1
Loading
Personal Weather Stations






























Interactive Weather Map New forecast layout! Learn more

10-Day Weather Forecast

Advertisements
Track Severe Weather on mobile